createdAt,value
2017-03-08T00:00:01.536Z,17.16
2017-03-08T00:01:11.950Z,17.12
2017-03-08T00:02:22.133Z,17.08
2017-03-08T00:03:32.350Z,17.12
2017-03-08T00:04:42.571Z,17.08
2017-03-08T00:05:53.208Z,17.04
2017-03-08T00:07:03.891Z,17.04
2017-03-08T00:08:13.657Z,17.03
2017-03-08T00:09:23.871Z,17.04
2017-03-08T00:10:33.631Z,17.11
2017-03-08T00:11:43.396Z,17.06
2017-03-08T00:12:53.633Z,17.08
2017-03-08T00:14:03.861Z,17.03
2017-03-08T00:15:13.632Z,16.97
2017-03-08T00:16:23.001Z,17.06
2017-03-08T00:17:32.330Z,16.93
2017-03-08T00:18:41.715Z,16.88
2017-03-08T00:19:52.124Z,16.89
2017-03-08T00:21:01.892Z,16.91
2017-03-08T00:22:11.274Z,16.97
2017-03-08T00:23:21.495Z,16.96
2017-03-08T00:24:31.466Z,16.91
2017-03-08T00:25:41.237Z,16.93
2017-03-08T00:26:51.439Z,16.94
2017-03-08T00:28:00.751Z,16.97
2017-03-08T00:29:10.977Z,16.96
2017-03-08T00:30:20.891Z,16.91
2017-03-08T00:31:31.520Z,16.96
2017-03-08T00:32:40.838Z,16.85
2017-03-08T00:33:50.594Z,16.85
2017-03-08T00:34:59.906Z,16.94
2017-03-08T00:36:11.028Z,16.88
2017-03-08T00:37:21.658Z,16.89
2017-03-08T00:38:30.975Z,16.83
2017-03-08T00:39:40.740Z,16.88
2017-03-08T00:40:50.513Z,16.91
2017-03-08T00:42:00.342Z,16.79
2017-03-08T00:43:10.108Z,16.81
2017-03-08T00:44:19.881Z,16.86
2017-03-08T00:45:29.197Z,16.76
2017-03-08T00:46:39.839Z,16.85
2017-03-08T00:47:49.676Z,16.86
2017-03-08T00:48:59.900Z,16.89
2017-03-08T00:50:10.083Z,16.83
2017-03-08T00:51:19.823Z,16.82
2017-03-08T00:52:30.041Z,16.79
2017-03-08T00:53:39.855Z,16.71
2017-03-08T00:54:50.070Z,16.79
2017-03-08T00:56:00.283Z,16.81
2017-03-08T00:57:10.482Z,16.81
2017-03-08T00:58:20.287Z,16.78
2017-03-08T00:59:30.540Z,16.79
2017-03-08T01:00:40.320Z,16.78
2017-03-08T01:01:49.655Z,16.75
2017-03-08T01:02:59.412Z,16.68
2017-03-08T01:04:09.631Z,16.71
2017-03-08T01:05:19.888Z,16.73
2017-03-08T01:06:30.076Z,16.75
2017-03-08T01:07:40.277Z,16.68
2017-03-08T01:08:50.954Z,16.75
2017-03-08T01:10:00.714Z,16.7
2017-03-08T01:11:11.488Z,16.7
2017-03-08T01:12:21.262Z,16.71
2017-03-08T01:13:31.011Z,16.73
2017-03-08T01:14:40.338Z,16.67
2017-03-08T01:15:50.536Z,16.75
2017-03-08T01:17:01.323Z,16.63
2017-03-08T01:18:11.536Z,16.63
2017-03-08T01:19:21.741Z,16.63
2017-03-08T01:20:31.074Z,16.7
2017-03-08T01:21:40.831Z,16.58
2017-03-08T01:22:50.199Z,16.68
2017-03-08T01:24:00.390Z,16.66
2017-03-08T01:25:10.134Z,16.66
2017-03-08T01:26:20.328Z,16.57
2017-03-08T01:27:29.639Z,16.66
2017-03-08T01:28:39.873Z,16.66
2017-03-08T01:29:50.111Z,16.68
2017-03-08T01:31:00.308Z,16.7
2017-03-08T01:32:10.080Z,16.64
2017-03-08T01:33:20.263Z,16.64
2017-03-08T01:34:30.964Z,16.61
2017-03-08T01:35:41.209Z,16.52
2017-03-08T01:36:50.973Z,16.68
2017-03-08T01:38:00.842Z,16.49
2017-03-08T01:39:11.057Z,16.53
2017-03-08T01:40:21.297Z,16.5
2017-03-08T01:41:31.075Z,16.5
2017-03-08T01:42:40.821Z,16.56
2017-03-08T01:43:50.638Z,16.48
2017-03-08T01:45:00.837Z,16.5
2017-03-08T01:46:11.606Z,16.48
2017-03-08T01:47:21.802Z,16.46
2017-03-08T01:48:31.571Z,16.45
2017-03-08T01:49:41.317Z,16.58
2017-03-08T01:50:50.652Z,16.48
2017-03-08T01:52:00.479Z,16.39
2017-03-08T01:53:10.669Z,16.5
2017-03-08T01:54:21.284Z,16.49
2017-03-08T01:55:31.060Z,16.52
2017-03-08T01:56:41.253Z,16.5
2017-03-08T01:57:51.491Z,16.5
2017-03-08T01:59:01.236Z,16.49
2017-03-08T02:00:11.438Z,16.46
2017-03-08T02:01:22.098Z,16.52
2017-03-08T02:02:31.869Z,16.43
2017-03-08T02:03:41.238Z,16.42
2017-03-08T02:04:50.592Z,16.49
2017-03-08T02:06:01.235Z,16.43
2017-03-08T02:07:11.425Z,16.41
2017-03-08T02:08:20.759Z,16.41
2017-03-08T02:09:30.136Z,16.42
2017-03-08T02:10:39.909Z,16.41
2017-03-08T02:11:50.542Z,16.42
2017-03-08T02:13:02.170Z,16.41
2017-03-08T02:14:11.943Z,16.41
2017-03-08T02:15:22.645Z,16.42
2017-03-08T02:16:32.855Z,16.39
2017-03-08T02:17:42.644Z,16.42
2017-03-08T02:18:52.849Z,16.28
2017-03-08T02:20:02.602Z,16.31
2017-03-08T02:21:12.435Z,16.41
2017-03-08T02:22:22.681Z,16.33
2017-03-08T02:23:32.900Z,16.33
2017-03-08T02:24:43.552Z,16.39
2017-03-08T02:25:53.312Z,16.38
2017-03-08T02:27:03.160Z,16.33
2017-03-08T02:28:13.817Z,16.35
2017-03-08T02:29:23.592Z,16.38
2017-03-08T02:30:33.369Z,16.31
2017-03-08T02:31:43.171Z,16.28
2017-03-08T02:32:52.975Z,16.34
2017-03-08T02:34:02.737Z,16.25
2017-03-08T02:35:12.502Z,16.31
2017-03-08T02:36:22.283Z,16.39
2017-03-08T02:37:32.049Z,16.3
2017-03-08T02:38:42.296Z,16.27
2017-03-08T02:39:52.516Z,16.21
2017-03-08T02:41:02.335Z,16.3
2017-03-08T02:42:12.537Z,16.23
2017-03-08T02:43:22.308Z,16.28
2017-03-08T02:44:32.119Z,16.25
2017-03-08T02:45:42.321Z,16.28
2017-03-08T02:46:52.094Z,16.2
2017-03-08T02:48:02.303Z,16.23
2017-03-08T02:49:11.620Z,16.27
2017-03-08T02:50:21.429Z,16.25
2017-03-08T02:51:31.179Z,16.25
2017-03-08T02:52:40.952Z,16.21
2017-03-08T02:53:50.261Z,16.24
2017-03-08T02:55:00.477Z,16.15
2017-03-08T02:56:10.719Z,16.17
2017-03-08T02:57:20.928Z,16.2
2017-03-08T02:58:30.686Z,16.2
2017-03-08T02:59:40.903Z,16.21
2017-03-08T03:00:50.664Z,16.14
2017-03-08T03:02:00.043Z,16.2
2017-03-08T03:03:10.275Z,16.2
2017-03-08T03:04:20.488Z,16.14
2017-03-08T03:05:30.277Z,16.17
2017-03-08T03:06:40.034Z,16.17
2017-03-08T03:07:49.852Z,16.17
2017-03-08T03:09:00.093Z,16.14
2017-03-08T03:10:09.866Z,16.08
2017-03-08T03:11:19.207Z,16.12
2017-03-08T03:12:28.960Z,16.12
2017-03-08T03:13:39.223Z,16.11
2017-03-08T03:14:49.442Z,16.17
2017-03-08T03:15:59.220Z,16.09
2017-03-08T03:17:08.977Z,16.08
2017-03-08T03:18:18.766Z,16.15
2017-03-08T03:19:28.595Z,16.21
2017-03-08T03:20:38.380Z,16.08
2017-03-08T03:21:48.160Z,16.08
2017-03-08T03:22:57.930Z,16.08
2017-03-08T03:24:08.152Z,16.05
2017-03-08T03:25:17.537Z,16.15
2017-03-08T03:26:27.742Z,16.12
2017-03-08T03:27:37.504Z,16.17
2017-03-08T03:28:46.828Z,16.09
2017-03-08T03:29:56.146Z,16.09
2017-03-08T03:31:07.059Z,16.04
2017-03-08T03:32:16.816Z,16.11
2017-03-08T03:33:26.577Z,16.17
2017-03-08T03:34:36.359Z,16.12
2017-03-08T03:35:45.676Z,16.12
2017-03-08T03:36:55.057Z,16.15
2017-03-08T03:38:04.838Z,16.11
2017-03-08T03:39:14.588Z,16.05
2017-03-08T03:40:24.356Z,16.02
2017-03-08T03:41:34.114Z,16.12
2017-03-08T03:42:44.371Z,16.08
2017-03-08T03:43:54.120Z,16.01
2017-03-08T03:45:03.885Z,16.04
2017-03-08T03:46:14.101Z,16.01
2017-03-08T03:47:23.884Z,16
2017-03-08T03:48:33.701Z,15.97
2017-03-08T03:49:43.463Z,16.04
2017-03-08T03:50:53.224Z,16.02
2017-03-08T03:52:03.448Z,15.93
2017-03-08T03:53:13.244Z,15.97
2017-03-08T03:54:23.079Z,16.04
2017-03-08T03:55:32.876Z,16.01
2017-03-08T03:56:42.685Z,16
2017-03-08T03:57:52.474Z,16.02
2017-03-08T03:59:01.824Z,15.96
2017-03-08T04:00:12.071Z,15.96
2017-03-08T04:01:21.838Z,15.96
2017-03-08T04:02:31.599Z,15.97
2017-03-08T04:03:41.360Z,15.92
2017-03-08T04:04:51.133Z,15.97
2017-03-08T04:06:00.956Z,16.01
2017-03-08T04:07:10.264Z,15.93
2017-03-08T04:08:20.029Z,15.94
2017-03-08T04:09:29.785Z,16.02
2017-03-08T04:10:39.107Z,16
2017-03-08T04:11:49.375Z,16.02
2017-03-08T04:13:00.046Z,15.97
2017-03-08T04:14:09.807Z,15.96
2017-03-08T04:15:20.024Z,16.02
2017-03-08T04:16:29.801Z,15.96
2017-03-08T04:17:40.054Z,16.02
2017-03-08T04:18:49.868Z,15.96
2017-03-08T04:19:59.644Z,15.97
2017-03-08T04:21:09.429Z,16.01
2017-03-08T04:22:19.203Z,15.97
2017-03-08T04:23:29.020Z,16
2017-03-08T04:24:39.212Z,15.97
2017-03-08T04:25:48.966Z,15.97
2017-03-08T04:26:58.733Z,15.96
2017-03-08T04:28:08.053Z,16
2017-03-08T04:29:18.458Z,16
2017-03-08T04:30:28.231Z,15.94
2017-03-08T04:31:37.981Z,15.96
2017-03-08T04:32:47.746Z,16.01
2017-03-08T04:33:57.946Z,15.96
2017-03-08T04:35:07.780Z,15.96
2017-03-08T04:36:17.972Z,15.96
2017-03-08T04:37:27.315Z,16.01
2017-03-08T04:38:37.078Z,15.96
2017-03-08T04:39:47.314Z,15.96
2017-03-08T04:40:56.932Z,15.94
2017-03-08T04:42:07.135Z,15.97
2017-03-08T04:43:16.896Z,15.96
2017-03-08T04:44:27.124Z,15.9
2017-03-08T04:45:37.330Z,15.97
2017-03-08T04:46:47.154Z,15.97
2017-03-08T04:47:57.341Z,15.96
2017-03-08T04:49:07.142Z,15.92
2017-03-08T04:50:16.528Z,15.96
2017-03-08T04:51:26.301Z,15.94
2017-03-08T04:52:36.134Z,15.94
2017-03-08T04:53:45.463Z,15.93
2017-03-08T04:54:55.240Z,15.92
2017-03-08T04:56:05.013Z,15.93
2017-03-08T04:57:14.327Z,15.94
2017-03-08T04:58:24.143Z,15.94
2017-03-08T04:59:34.813Z,15.92
2017-03-08T05:00:44.591Z,15.87
2017-03-08T05:01:54.359Z,15.82
2017-03-08T05:03:04.572Z,15.87
2017-03-08T05:04:14.406Z,15.84
2017-03-08T05:05:24.167Z,15.92
2017-03-08T05:06:35.284Z,15.78
2017-03-08T05:07:45.045Z,15.92
2017-03-08T05:08:55.245Z,15.89
2017-03-08T05:10:05.056Z,15.83
2017-03-08T05:11:15.275Z,15.78
2017-03-08T05:12:25.469Z,15.89
2017-03-08T05:13:34.791Z,15.9
2017-03-08T05:14:44.547Z,15.89
2017-03-08T05:15:54.830Z,15.9
2017-03-08T05:17:04.599Z,15.92
2017-03-08T05:18:14.820Z,15.8
2017-03-08T05:19:24.597Z,15.82
2017-03-08T05:20:34.815Z,15.9
2017-03-08T05:21:44.632Z,15.9
2017-03-08T05:22:54.849Z,15.82
2017-03-08T05:24:04.598Z,15.9
2017-03-08T05:25:14.392Z,15.83
2017-03-08T05:26:23.733Z,15.87
2017-03-08T05:27:33.110Z,15.82
2017-03-08T05:28:42.879Z,15.84
2017-03-08T05:29:53.074Z,15.89
2017-03-08T05:31:03.277Z,15.83
2017-03-08T05:32:13.045Z,15.78
2017-03-08T05:33:22.887Z,15.76
2017-03-08T05:34:32.660Z,15.84
2017-03-08T05:35:41.990Z,15.72
2017-03-08T05:36:51.775Z,15.8
2017-03-08T05:38:01.588Z,15.82
2017-03-08T05:39:10.969Z,15.8
2017-03-08T05:40:20.735Z,15.84
2017-03-08T05:41:30.938Z,15.84
2017-03-08T05:42:40.701Z,15.83
2017-03-08T05:43:50.026Z,15.71
2017-03-08T05:44:59.863Z,15.78
2017-03-08T05:46:09.201Z,15.82
2017-03-08T05:47:19.430Z,15.75
2017-03-08T05:48:29.194Z,15.83
2017-03-08T05:49:39.386Z,15.83
2017-03-08T05:50:49.629Z,15.78
2017-03-08T05:52:00.272Z,15.82
2017-03-08T05:53:10.479Z,15.87
2017-03-08T05:54:20.673Z,15.76
2017-03-08T05:55:30.034Z,15.71
2017-03-08T05:56:39.871Z,15.8
2017-03-08T05:57:50.085Z,15.78
2017-03-08T05:58:59.862Z,15.82
2017-03-08T06:00:09.627Z,15.76
2017-03-08T06:01:18.972Z,15.72
2017-03-08T06:02:28.801Z,15.76
2017-03-08T06:03:38.147Z,15.78
2017-03-08T06:04:47.895Z,15.76
2017-03-08T06:05:58.107Z,15.74
2017-03-08T06:07:08.334Z,15.82
2017-03-08T06:08:18.151Z,15.78
2017-03-08T06:09:28.351Z,15.76
2017-03-08T06:10:38.541Z,15.76
2017-03-08T06:11:48.753Z,15.78
2017-03-08T06:12:59.411Z,15.84
2017-03-08T06:14:09.221Z,15.76
2017-03-08T06:15:18.982Z,15.74
2017-03-08T06:16:28.759Z,15.74
2017-03-08T06:17:38.525Z,15.75
2017-03-08T06:18:47.842Z,15.83
2017-03-08T06:19:57.227Z,15.8
2017-03-08T06:21:06.540Z,15.72
2017-03-08T06:22:16.767Z,15.86
2017-03-08T06:23:26.970Z,15.72
2017-03-08T06:24:36.760Z,15.84
2017-03-08T06:25:47.009Z,15.8
2017-03-08T06:26:56.835Z,15.82
2017-03-08T06:28:07.039Z,15.83
2017-03-08T06:29:16.819Z,15.83
2017-03-08T06:30:26.607Z,15.82
2017-03-08T06:31:36.426Z,15.82
2017-03-08T06:32:46.224Z,15.86
2017-03-08T06:33:56.437Z,15.87
2017-03-08T06:35:06.191Z,15.84
2017-03-08T06:36:15.963Z,15.93
2017-03-08T06:37:25.787Z,15.78
2017-03-08T06:38:36.014Z,15.93
2017-03-08T06:39:45.781Z,15.96
2017-03-08T06:40:56.416Z,15.97
2017-03-08T06:42:06.173Z,15.9
2017-03-08T06:43:16.881Z,15.96
2017-03-08T06:44:26.652Z,15.94
2017-03-08T06:45:36.415Z,15.97
2017-03-08T06:46:46.610Z,16.02
2017-03-08T06:47:56.835Z,16
2017-03-08T06:49:06.697Z,15.97
2017-03-08T06:50:16.506Z,15.97
2017-03-08T06:51:26.703Z,16.02
2017-03-08T06:52:36.917Z,15.97
2017-03-08T06:53:46.695Z,16.01
2017-03-08T06:54:56.522Z,16.01
2017-03-08T06:56:06.304Z,16.07
2017-03-08T06:57:16.086Z,16.04
2017-03-08T06:58:25.862Z,16.01
2017-03-08T06:59:35.611Z,16.09
2017-03-08T07:00:45.429Z,16.12
2017-03-08T07:01:55.200Z,16.08
2017-03-08T07:03:05.411Z,16.11
2017-03-08T07:04:14.752Z,16.14
2017-03-08T07:05:24.969Z,16.15
2017-03-08T07:06:35.833Z,16.12
2017-03-08T07:07:46.046Z,16.12
2017-03-08T07:08:56.701Z,16.15
2017-03-08T07:10:06.463Z,16.11
2017-03-08T07:11:16.671Z,16.08
2017-03-08T07:12:26.488Z,16.15
2017-03-08T07:13:36.257Z,16.11
2017-03-08T07:14:46.037Z,16.14
2017-03-08T07:15:56.707Z,16.28
2017-03-08T07:17:06.512Z,16.2
2017-03-08T07:18:16.321Z,16.23
2017-03-08T07:19:26.081Z,16.15
2017-03-08T07:20:36.301Z,16.14
2017-03-08T07:21:46.066Z,16.23
2017-03-08T07:22:56.286Z,16.2
2017-03-08T07:24:06.208Z,16.23
2017-03-08T07:25:16.436Z,16.27
2017-03-08T07:26:26.195Z,16.2
2017-03-08T07:27:36.388Z,16.28
2017-03-08T07:28:46.144Z,16.3
2017-03-08T07:29:55.966Z,16.17
2017-03-08T07:31:05.763Z,16.23
2017-03-08T07:32:15.104Z,16.25
2017-03-08T07:33:24.865Z,16.15
2017-03-08T07:34:34.627Z,16.21
2017-03-08T07:35:44.907Z,16.21
2017-03-08T07:36:54.249Z,16.35
2017-03-08T07:38:04.450Z,16.33
2017-03-08T07:39:14.211Z,16.17
2017-03-08T07:40:23.989Z,16.34
2017-03-08T07:41:33.805Z,16.34
2017-03-08T07:42:43.563Z,16.34
2017-03-08T07:43:53.330Z,16.3
2017-03-08T07:45:03.093Z,16.33
2017-03-08T07:46:12.862Z,16.3
2017-03-08T07:47:22.673Z,16.38
2017-03-08T07:48:32.449Z,16.38
2017-03-08T07:49:42.237Z,16.35
2017-03-08T07:50:51.995Z,16.43
2017-03-08T07:52:01.783Z,16.42
2017-03-08T07:53:11.149Z,16.46
2017-03-08T07:54:20.937Z,16.48
2017-03-08T07:55:31.594Z,16.53
2017-03-08T07:56:42.244Z,16.49
2017-03-08T07:57:52.010Z,16.45
2017-03-08T07:59:01.967Z,16.45
2017-03-08T08:00:12.187Z,16.46
2017-03-08T08:01:21.966Z,16.6
2017-03-08T08:02:31.744Z,16.6
2017-03-08T08:03:41.060Z,16.66
2017-03-08T08:04:50.967Z,16.56
2017-03-08T08:06:01.174Z,16.68
2017-03-08T08:07:10.933Z,16.7
2017-03-08T08:08:21.159Z,16.73
2017-03-08T08:09:31.810Z,16.79
2017-03-08T08:10:41.776Z,16.7
2017-03-08T08:11:51.564Z,16.79
2017-03-08T08:13:01.337Z,16.76
2017-03-08T08:14:11.107Z,16.83
2017-03-08T08:15:20.891Z,16.82
2017-03-08T08:16:31.169Z,16.82
2017-03-08T08:17:41.381Z,16.81
2017-03-08T08:18:52.479Z,16.79
2017-03-08T08:20:02.372Z,16.79
2017-03-08T08:21:12.145Z,16.86
2017-03-08T08:22:22.410Z,16.82
2017-03-08T08:23:32.180Z,16.81
2017-03-08T08:24:41.954Z,16.83
2017-03-08T08:25:51.710Z,16.79
2017-03-08T08:27:01.471Z,16.76
2017-03-08T08:28:11.424Z,16.78
2017-03-08T08:29:22.070Z,16.82
2017-03-08T08:30:32.270Z,16.81
2017-03-08T08:31:42.040Z,16.81
2017-03-08T08:32:51.825Z,16.81
2017-03-08T08:34:01.642Z,16.82
2017-03-08T08:35:10.971Z,16.82
2017-03-08T08:36:21.188Z,16.89
2017-03-08T08:37:30.528Z,16.81
2017-03-08T08:38:41.167Z,16.83
2017-03-08T08:39:51.640Z,16.79
2017-03-08T08:41:01.425Z,16.82
2017-03-08T08:42:11.642Z,16.79
2017-03-08T08:43:21.436Z,16.79
2017-03-08T08:44:31.227Z,16.81
2017-03-08T08:45:41.478Z,16.79
2017-03-08T08:46:51.227Z,16.81
2017-03-08T08:48:01.016Z,16.82
2017-03-08T08:49:10.344Z,16.88
2017-03-08T08:50:20.107Z,16.81
2017-03-08T08:51:30.372Z,16.78
2017-03-08T08:52:40.149Z,16.85
2017-03-08T08:53:49.902Z,16.86
2017-03-08T08:54:59.684Z,16.86
2017-03-08T08:56:09.013Z,16.97
2017-03-08T08:57:19.257Z,16.98
2017-03-08T08:58:29.021Z,16.91
2017-03-08T08:59:38.781Z,16.98
2017-03-08T09:00:48.572Z,16.93
2017-03-08T09:01:58.793Z,17.07
2017-03-08T09:03:09.074Z,17.03
2017-03-08T09:04:19.309Z,17.11
2017-03-08T09:05:29.090Z,17.07
2017-03-08T09:06:39.296Z,17.06
2017-03-08T09:07:49.056Z,17.07
2017-03-08T09:08:59.308Z,17.04
2017-03-08T09:10:09.075Z,17.04
2017-03-08T09:11:19.296Z,17.06
2017-03-08T09:12:29.073Z,17.14
2017-03-08T09:13:38.858Z,17.11
2017-03-08T09:14:48.780Z,17.07
2017-03-08T09:15:58.541Z,17.11
2017-03-08T09:17:08.314Z,17.07
2017-03-08T09:18:18.118Z,17.03
2017-03-08T09:19:28.331Z,17.07
2017-03-08T09:20:38.149Z,17.07
2017-03-08T09:21:48.807Z,17.12
2017-03-08T09:22:58.578Z,17.08
2017-03-08T09:24:08.821Z,17.08
2017-03-08T09:25:19.469Z,17.06
2017-03-08T09:26:29.743Z,17.12
2017-03-08T09:27:39.952Z,17.04
2017-03-08T09:28:49.730Z,17
2017-03-08T09:29:59.043Z,17.03
2017-03-08T09:31:08.848Z,17.16
2017-03-08T09:32:18.693Z,17.12
2017-03-08T09:33:28.013Z,17.04
2017-03-08T09:34:38.664Z,17.06
2017-03-08T09:35:48.449Z,17.07
2017-03-08T09:36:57.786Z,17.08
2017-03-08T09:38:07.603Z,17.07
2017-03-08T09:39:17.387Z,17.06
2017-03-08T09:40:27.609Z,17.07
2017-03-08T09:41:37.386Z,17.06
2017-03-08T09:42:48.068Z,17.08
2017-03-08T09:43:57.881Z,17.06
2017-03-08T09:45:07.687Z,17.07
2017-03-08T09:46:17.912Z,17.08
2017-03-08T09:47:28.116Z,17.07
2017-03-08T09:48:37.902Z,17.07
2017-03-08T09:49:48.151Z,17.08
2017-03-08T09:50:58.352Z,17.11
2017-03-08T09:52:08.557Z,17.07
2017-03-08T09:53:18.351Z,17.08
2017-03-08T09:54:28.595Z,17.06
2017-03-08T09:55:38.425Z,17.11
2017-03-08T09:56:48.219Z,17.04
2017-03-08T09:57:57.990Z,17.04
2017-03-08T09:59:09.073Z,17.01
2017-03-08T10:00:18.397Z,17.08
2017-03-08T10:01:28.651Z,17.07
2017-03-08T10:02:38.012Z,17.16
2017-03-08T10:03:47.777Z,17.08
2017-03-08T10:04:57.975Z,17.07
2017-03-08T10:06:07.736Z,17.08
2017-03-08T10:07:17.545Z,17.16
2017-03-08T10:08:27.309Z,17.14
2017-03-08T10:09:37.539Z,17.15
2017-03-08T10:10:47.308Z,17.18
2017-03-08T10:11:57.110Z,17.15
2017-03-08T10:13:07.381Z,17.22
2017-03-08T10:14:17.152Z,17.31
2017-03-08T10:15:27.805Z,17.22
2017-03-08T10:16:37.610Z,17.31
2017-03-08T10:17:47.382Z,17.36
2017-03-08T10:18:57.624Z,17.41
2017-03-08T10:20:06.966Z,17.51
2017-03-08T10:21:17.167Z,17.52
2017-03-08T10:22:26.940Z,17.55
2017-03-08T10:23:36.737Z,17.68
2017-03-08T10:24:47.005Z,17.77
2017-03-08T10:25:57.214Z,17.7
2017-03-08T10:27:07.425Z,17.72
2017-03-08T10:28:17.186Z,17.81
2017-03-08T10:29:27.396Z,17.87
2017-03-08T10:30:37.223Z,17.82
2017-03-08T10:31:47.437Z,17.93
2017-03-08T10:32:57.640Z,17.89
2017-03-08T10:34:07.423Z,17.87
2017-03-08T10:35:17.658Z,17.86
2017-03-08T10:36:27.063Z,17.87
2017-03-08T10:37:36.840Z,17.89
2017-03-08T10:38:46.609Z,17.92
2017-03-08T10:39:56.826Z,17.93
2017-03-08T10:41:06.591Z,17.87
2017-03-08T10:42:17.069Z,17.87
2017-03-08T10:43:26.826Z,17.95
2017-03-08T10:44:37.022Z,18.02
2017-03-08T10:45:47.220Z,17.87
2017-03-08T10:46:57.425Z,17.93
2017-03-08T10:48:07.227Z,17.9
2017-03-08T10:49:16.995Z,17.95
2017-03-08T10:50:26.790Z,17.97
2017-03-08T10:51:36.990Z,17.87
2017-03-08T10:52:46.759Z,17.99
2017-03-08T10:53:56.572Z,17.9
2017-03-08T10:55:06.346Z,17.97
2017-03-08T10:56:16.113Z,17.96
2017-03-08T10:57:26.316Z,17.96
2017-03-08T10:58:36.081Z,18
2017-03-08T10:59:45.470Z,17.93
2017-03-08T11:00:55.240Z,18.1
2017-03-08T11:02:05.029Z,17.97
2017-03-08T11:03:14.816Z,17.97
2017-03-08T11:04:25.458Z,18.07
2017-03-08T11:05:35.280Z,17.9
2017-03-08T11:06:45.042Z,17.99
2017-03-08T11:07:54.813Z,17.93
2017-03-08T11:09:05.046Z,17.95
2017-03-08T11:10:15.284Z,17.99
2017-03-08T11:11:25.994Z,17.96
2017-03-08T11:12:36.202Z,17.97
2017-03-08T11:13:45.964Z,17.99
2017-03-08T11:14:56.170Z,17.89
2017-03-08T11:16:05.944Z,17.99
2017-03-08T11:17:15.861Z,17.97
2017-03-08T11:18:25.641Z,17.89
2017-03-08T11:19:35.419Z,17.93
2017-03-08T11:20:45.178Z,17.87
2017-03-08T11:21:54.933Z,17.87
2017-03-08T11:23:04.322Z,17.78
2017-03-08T11:24:14.083Z,17.84
2017-03-08T11:25:24.316Z,17.84
2017-03-08T11:26:34.512Z,17.87
2017-03-08T11:27:44.271Z,17.77
2017-03-08T11:28:54.968Z,17.86
2017-03-08T11:30:04.773Z,17.74
2017-03-08T11:31:14.539Z,17.86
2017-03-08T11:32:24.295Z,17.72
2017-03-08T11:33:34.507Z,17.74
2017-03-08T11:34:44.794Z,17.74
2017-03-08T11:35:55.010Z,17.72
2017-03-08T11:37:04.772Z,17.7
2017-03-08T11:38:14.525Z,17.74
2017-03-08T11:39:23.902Z,17.71
2017-03-08T11:40:33.711Z,17.75
2017-03-08T11:41:43.473Z,17.77
2017-03-08T11:42:53.220Z,17.68
2017-03-08T11:44:03.419Z,17.7
2017-03-08T11:45:13.176Z,17.77
2017-03-08T11:46:23.145Z,17.72
2017-03-08T11:47:33.339Z,17.66
2017-03-08T11:48:43.092Z,17.62
2017-03-08T11:49:53.307Z,17.59
2017-03-08T11:51:03.533Z,17.75
2017-03-08T11:52:13.767Z,17.7
2017-03-08T11:53:23.540Z,17.71
2017-03-08T11:54:33.738Z,17.68
2017-03-08T11:55:43.495Z,17.71
2017-03-08T11:56:54.144Z,17.78
2017-03-08T11:58:03.953Z,17.75
2017-03-08T11:59:13.718Z,17.68
2017-03-08T12:00:23.944Z,17.7
2017-03-08T12:01:33.736Z,17.71
2017-03-08T12:02:43.926Z,17.7
2017-03-08T12:03:53.758Z,17.7
2017-03-08T12:05:03.524Z,17.74
2017-03-08T12:06:13.277Z,17.74
2017-03-08T12:07:23.035Z,17.71
2017-03-08T12:08:32.787Z,17.55
2017-03-08T12:09:42.608Z,17.59
2017-03-08T12:10:52.815Z,17.64
2017-03-08T12:12:02.575Z,17.56
2017-03-08T12:13:12.805Z,17.58
2017-03-08T12:14:22.392Z,17.64
2017-03-08T12:15:32.191Z,17.68
2017-03-08T12:16:41.956Z,17.55
2017-03-08T12:17:52.225Z,17.59
2017-03-08T12:19:01.547Z,17.7
2017-03-08T12:20:11.788Z,17.68
2017-03-08T12:21:22.005Z,17.78
2017-03-08T12:22:31.333Z,17.75
2017-03-08T12:23:41.583Z,17.81
2017-03-08T12:24:51.344Z,17.84
2017-03-08T12:26:01.114Z,17.81
2017-03-08T12:27:10.474Z,17.95
2017-03-08T12:28:21.891Z,17.87
2017-03-08T12:29:33.752Z,17.89
2017-03-08T12:30:44.801Z,18.03
2017-03-08T12:31:57.074Z,18.05
2017-03-08T12:33:09.343Z,18.03
2017-03-08T12:34:19.993Z,18.05
2017-03-08T12:35:30.243Z,18.02
2017-03-08T12:36:39.560Z,18.05
2017-03-08T12:37:48.888Z,18.05
2017-03-08T12:38:59.091Z,18.11
2017-03-08T12:40:08.857Z,18.08
2017-03-08T12:41:18.665Z,18.11
2017-03-08T12:42:28.415Z,18.18
2017-03-08T12:43:38.632Z,18.2
2017-03-08T12:44:48.401Z,18.25
2017-03-08T12:45:58.170Z,18.23
2017-03-08T12:47:08.423Z,18.21
2017-03-08T12:48:18.172Z,18.32
2017-03-08T12:49:27.934Z,18.32
2017-03-08T12:50:37.731Z,18.29
2017-03-08T12:51:47.956Z,18.33
2017-03-08T12:52:58.197Z,18.33
2017-03-08T12:54:07.977Z,18.33
2017-03-08T12:55:17.300Z,18.41
2017-03-08T12:56:27.072Z,18.41
2017-03-08T12:57:36.826Z,18.45
2017-03-08T12:58:46.647Z,18.44
2017-03-08T12:59:57.292Z,18.44
2017-03-08T13:01:07.530Z,18.51
2017-03-08T13:02:17.331Z,18.52
2017-03-08T13:03:27.084Z,18.52
2017-03-08T13:04:37.357Z,18.47
2017-03-08T13:05:47.108Z,18.5
2017-03-08T13:06:56.904Z,18.48
2017-03-08T13:08:06.680Z,18.57
2017-03-08T13:09:16.457Z,18.65
2017-03-08T13:10:26.699Z,18.65
2017-03-08T13:11:36.469Z,18.63
2017-03-08T13:12:46.236Z,18.69
2017-03-08T13:13:55.991Z,18.67
2017-03-08T13:15:06.216Z,18.75
2017-03-08T13:16:16.036Z,18.81
2017-03-08T13:17:26.262Z,18.82
2017-03-08T13:18:36.040Z,18.85
2017-03-08T13:19:46.237Z,18.87
2017-03-08T13:20:56.454Z,18.9
2017-03-08T13:22:06.713Z,18.88
2017-03-08T13:23:16.929Z,18.87
2017-03-08T13:24:26.706Z,18.88
2017-03-08T13:25:36.913Z,18.9
2017-03-08T13:26:47.104Z,18.92
2017-03-08T13:27:56.479Z,18.87
2017-03-08T13:29:06.696Z,18.95
2017-03-08T13:30:17.130Z,18.92
2017-03-08T13:31:27.356Z,19.07
2017-03-08T13:32:36.720Z,18.98
2017-03-08T13:33:46.759Z,18.99
2017-03-08T13:34:56.135Z,19.1
2017-03-08T13:36:07.473Z,19.08
2017-03-08T13:37:16.905Z,19.14
2017-03-08T13:38:26.964Z,19.1
2017-03-08T13:39:36.790Z,19.11
2017-03-08T13:40:47.889Z,19.21
2017-03-08T13:41:58.646Z,19.21
2017-03-08T13:43:08.408Z,19.25
2017-03-08T13:44:18.385Z,19.21
2017-03-08T13:45:30.280Z,19.19
2017-03-08T13:46:41.766Z,19.21
2017-03-08T13:47:53.146Z,19.32
2017-03-08T13:49:04.089Z,19.28
2017-03-08T13:50:16.862Z,19.32
2017-03-08T13:51:30.975Z,19.23
2017-03-08T13:52:45.585Z,19.29
2017-03-08T13:53:58.182Z,19.28
2017-03-08T13:55:09.803Z,19.28
2017-03-08T13:56:21.433Z,19.28
2017-03-08T13:57:34.890Z,19.33
2017-03-08T13:58:50.028Z,19.31
2017-03-08T14:00:01.384Z,19.26
2017-03-08T14:01:13.047Z,19.39
2017-03-08T14:02:25.686Z,19.29
2017-03-08T14:03:38.084Z,19.29
2017-03-08T14:04:48.973Z,19.39
2017-03-08T14:06:02.858Z,19.36
2017-03-08T14:07:14.672Z,19.26
2017-03-08T14:08:26.128Z,19.33
2017-03-08T14:09:37.452Z,19.36
2017-03-08T14:10:48.476Z,19.37
2017-03-08T14:11:59.146Z,19.4
2017-03-08T14:13:10.859Z,19.37
2017-03-08T14:14:22.508Z,19.44
2017-03-08T14:15:33.828Z,19.46
2017-03-08T14:16:46.313Z,19.44
2017-03-08T14:17:58.767Z,19.47
2017-03-08T14:19:10.251Z,19.48
2017-03-08T14:20:21.191Z,19.4
2017-03-08T14:21:32.597Z,19.51
2017-03-08T14:22:46.411Z,19.47
2017-03-08T14:23:58.150Z,19.43
2017-03-08T14:25:10.203Z,19.48
2017-03-08T14:26:21.236Z,19.47
2017-03-08T14:27:31.061Z,19.5
2017-03-08T14:28:40.827Z,19.51
2017-03-08T14:29:51.048Z,19.46
2017-03-08T14:31:00.865Z,19.47
2017-03-08T14:32:10.635Z,19.48
2017-03-08T14:33:20.399Z,19.5
2017-03-08T14:34:29.805Z,19.54
2017-03-08T14:35:40.005Z,19.56
2017-03-08T14:36:50.047Z,19.56
2017-03-08T14:38:00.353Z,19.47
2017-03-08T14:39:11.460Z,19.54
2017-03-08T14:40:21.667Z,19.54
2017-03-08T14:41:31.443Z,19.58
2017-03-08T14:42:41.261Z,19.58
2017-03-08T14:43:51.045Z,19.55
2017-03-08T14:45:00.803Z,19.62
2017-03-08T14:46:10.596Z,19.58
2017-03-08T14:47:20.033Z,19.55
2017-03-08T14:48:29.849Z,19.56
2017-03-08T14:49:40.068Z,19.54
2017-03-08T14:50:50.443Z,19.55
2017-03-08T14:52:01.082Z,19.54
2017-03-08T14:53:11.275Z,19.54
2017-03-08T14:54:21.364Z,19.56
2017-03-08T14:55:32.034Z,19.58
2017-03-08T14:56:42.783Z,19.58
2017-03-08T14:57:52.663Z,19.59
2017-03-08T14:59:02.976Z,19.59
2017-03-08T15:00:13.336Z,19.59
2017-03-08T15:01:23.088Z,19.58
2017-03-08T15:02:32.860Z,19.62
2017-03-08T15:03:43.058Z,19.58
2017-03-08T15:04:53.268Z,19.65